createdAt,value
2019-05-29T00:02:05.987Z,11.20
2019-05-29T00:04:34.569Z,11.20
2019-05-29T00:09:31.420Z,11.10
2019-05-29T00:14:28.068Z,11.10
2019-05-29T00:16:56.696Z,11.00
2019-05-29T00:19:25.173Z,11.00
2019-05-29T00:26:50.113Z,10.90
2019-05-29T00:29:18.575Z,10.90
2019-05-29T00:36:43.912Z,10.80
2019-05-29T00:41:41.362Z,10.80
2019-05-29T00:44:09.805Z,10.70
2019-05-29T00:46:57.580Z,10.70
2019-05-29T00:49:26.151Z,10.70
2019-05-29T00:51:54.679Z,10.70
2019-05-29T00:54:23.267Z,10.70
2019-05-29T01:01:48.116Z,10.60
2019-05-29T01:04:17.807Z,10.60
2019-05-29T01:06:46.412Z,10.50
2019-05-29T01:09:14.942Z,10.50
2019-05-29T01:11:43.405Z,10.50
2019-05-29T01:14:13.012Z,10.50
2019-05-29T01:16:41.607Z,10.30
2019-05-29T01:19:25.067Z,10.30
2019-05-29T01:21:55.205Z,10.30
2019-05-29T01:24:24.197Z,10.30
2019-05-29T01:26:52.688Z,10.20
2019-05-29T01:29:21.219Z,10.20
2019-05-29T01:31:49.655Z,10.20
2019-05-29T01:34:18.103Z,10.20
2019-05-29T01:39:15.142Z,10.10
2019-05-29T01:41:43.711Z,10.10
2019-05-29T01:44:12.128Z,10.00
2019-05-29T01:46:40.583Z,10.00
2019-05-29T01:49:09.075Z,10.00
2019-05-29T01:51:37.530Z,10.00
2019-05-29T01:54:06.019Z,9.90
2019-05-29T01:56:34.489Z,9.90
2019-05-29T01:59:02.967Z,9.90
2019-05-29T02:01:31.492Z,9.90
2019-05-29T02:03:59.929Z,9.80
2019-05-29T02:06:28.401Z,9.80
2019-05-29T02:08:56.879Z,9.60
2019-05-29T02:11:25.328Z,9.80
2019-05-29T02:13:53.874Z,9.70
2019-05-29T02:16:22.684Z,9.80
2019-05-29T02:18:51.383Z,6.90
2019-05-29T02:21:20.075Z,9.70
2019-05-29T02:23:48.643Z,9.60
2019-05-29T02:26:18.109Z,9.60
2019-05-29T02:31:14.734Z,9.60
2019-05-29T02:33:43.152Z,9.60
2019-05-29T02:38:39.713Z,9.60
2019-05-29T02:43:36.453Z,9.40
2019-05-29T02:46:04.944Z,9.40
2019-05-29T02:55:59.561Z,9.30
2019-05-29T02:58:29.752Z,9.30
2019-05-29T03:00:58.208Z,9.30
2019-05-29T03:05:57.928Z,9.20
2019-05-29T03:08:27.172Z,9.20
2019-05-29T03:10:56.529Z,9.10
2019-05-29T03:13:25.477Z,9.10
2019-05-29T03:16:09.741Z,9.10
2019-05-29T03:18:25.775Z,9.10
2019-05-29T03:20:54.479Z,9.10
2019-05-29T03:23:24.215Z,9.20
2019-05-29T03:25:52.844Z,9.20
2019-05-29T03:28:21.288Z,9.20
2019-05-29T03:30:49.822Z,9.20
2019-05-29T03:33:18.269Z,9.20
2019-05-29T03:35:48.425Z,9.20
2019-05-29T03:40:45.024Z,9.20
2019-05-29T03:43:13.532Z,9.10
2019-05-29T03:45:42.017Z,9.10
2019-05-29T03:48:10.464Z,9.10
2019-05-29T03:50:38.924Z,9.10
2019-05-29T03:53:07.348Z,9.10
2019-05-29T03:55:36.342Z,9.00
2019-05-29T03:58:05.999Z,9.00
2019-05-29T04:00:41.285Z,9.00
2019-05-29T04:03:04.947Z,9.00
2019-05-29T04:05:33.916Z,9.10
2019-05-29T04:08:03.541Z,9.10
2019-05-29T04:10:34.728Z,9.10
2019-05-29T04:13:02.442Z,9.10
2019-05-29T04:15:36.620Z,9.20
2019-05-29T04:20:36.158Z,9.20
2019-05-29T04:23:07.028Z,9.20
2019-05-29T04:25:41.725Z,9.20
2019-05-29T04:28:08.888Z,9.30
2019-05-29T04:30:39.072Z,9.30
2019-05-29T04:33:07.961Z,9.30
2019-05-29T04:35:37.017Z,9.40
2019-05-29T04:38:06.174Z,9.40
2019-05-29T04:40:35.121Z,9.50
2019-05-29T04:48:02.571Z,9.70
2019-05-29T04:50:31.789Z,9.70
2019-05-29T04:53:01.209Z,9.80
2019-05-29T04:55:30.620Z,9.90
2019-05-29T05:02:55.506Z,9.90
2019-05-29T05:05:23.935Z,10.00
2019-05-29T05:07:52.499Z,10.00
2019-05-29T05:10:35.684Z,10.10
2019-05-29T05:13:04.632Z,10.10
2019-05-29T05:15:35.854Z,10.20
2019-05-29T05:20:34.308Z,10.40
2019-05-29T05:23:02.828Z,11.00
2019-05-29T05:25:32.151Z,12.20
2019-05-29T05:28:00.955Z,13.70
2019-05-29T05:30:30.400Z,15.10
2019-05-29T05:35:27.131Z,16.70
2019-05-29T05:37:55.592Z,17.20
2019-05-29T05:40:24.024Z,17.40
2019-05-29T05:50:19.159Z,18.70
2019-05-29T05:52:47.623Z,18.40
2019-05-29T05:55:16.523Z,18.80
2019-05-29T05:57:44.974Z,19.40
2019-05-29T06:00:16.509Z,19.30
2019-05-29T06:02:44.965Z,19.30
2019-05-29T06:05:13.732Z,19.20
2019-05-29T06:07:42.544Z,19.20
2019-05-29T06:10:11.531Z,19.40
2019-05-29T06:12:40.622Z,19.40
2019-05-29T06:15:09.636Z,18.70
2019-05-29T06:17:38.787Z,19.30
2019-05-29T06:20:07.967Z,19.10
2019-05-29T06:25:06.306Z,20.10
2019-05-29T06:27:35.185Z,20.30
2019-05-29T06:30:07.884Z,20.40
2019-05-29T06:32:37.398Z,20.30
2019-05-29T06:35:07.015Z,20.10
2019-05-29T06:37:39.470Z,18.70
2019-05-29T06:40:08.650Z,19.00
2019-05-29T06:42:37.806Z,19.00
2019-05-29T06:45:08.462Z,18.80
2019-05-29T06:47:38.661Z,18.50
2019-05-29T06:52:35.690Z,16.70
2019-05-29T06:55:05.093Z,16.30
2019-05-29T06:57:33.653Z,16.30
2019-05-29T07:02:31.917Z,15.30
2019-05-29T07:05:00.712Z,14.70
2019-05-29T07:09:57.295Z,14.70
2019-05-29T07:12:25.743Z,14.50
2019-05-29T07:14:54.255Z,14.40
2019-05-29T07:17:22.692Z,14.50
2019-05-29T07:20:02.826Z,14.80
2019-05-29T07:22:21.283Z,14.80
2019-05-29T07:29:47.084Z,14.80
2019-05-29T07:32:15.858Z,14.80
2019-05-29T07:37:14.140Z,14.90
2019-05-29T07:42:12.072Z,15.20
2019-05-29T07:44:42.057Z,15.40
2019-05-29T07:54:36.797Z,15.60
2019-05-29T07:59:34.315Z,15.80
2019-05-29T08:04:30.959Z,15.90
2019-05-29T08:09:27.583Z,15.90
2019-05-29T08:14:24.129Z,15.60
2019-05-29T08:16:52.574Z,15.90
2019-05-29T08:19:21.250Z,15.90
2019-05-29T08:21:50.609Z,15.70
2019-05-29T08:24:19.231Z,15.60
2019-05-29T08:26:48.943Z,15.40
2019-05-29T08:29:17.507Z,15.40
2019-05-29T08:31:46.852Z,15.60
2019-05-29T08:34:15.409Z,15.50
2019-05-29T08:37:00.796Z,15.30
2019-05-29T08:39:32.947Z,15.40
2019-05-29T08:41:52.723Z,15.50
2019-05-29T08:44:14.482Z,15.30
2019-05-29T08:47:00.676Z,15.40
2019-05-29T08:51:41.817Z,15.80
2019-05-29T08:54:23.407Z,16.00
2019-05-29T08:56:40.639Z,16.20
2019-05-29T08:59:09.195Z,16.10
2019-05-29T09:01:37.709Z,16.30
2019-05-29T09:04:06.292Z,16.40
2019-05-29T09:09:03.022Z,16.50
2019-05-29T09:11:31.518Z,16.50
2019-05-29T09:18:56.284Z,16.30
2019-05-29T09:21:26.651Z,16.30
2019-05-29T09:23:58.515Z,16.40
2019-05-29T09:26:26.822Z,16.50
2019-05-29T09:28:55.325Z,16.70
2019-05-29T09:33:52.725Z,16.60
2019-05-29T09:38:49.487Z,16.90
2019-05-29T09:43:58.331Z,16.70
2019-05-29T09:46:18.836Z,16.60
2019-05-29T09:48:49.992Z,16.40
2019-05-29T09:53:48.161Z,16.90
2019-05-29T09:56:16.703Z,16.70
2019-05-29T10:03:43.173Z,17.30
2019-05-29T10:06:11.750Z,17.40
2019-05-29T10:08:40.211Z,17.40
2019-05-29T10:13:38.485Z,17.60
2019-05-29T10:16:07.017Z,17.80
2019-05-29T10:18:43.825Z,17.60
2019-05-29T10:26:08.669Z,17.90
2019-05-29T10:33:35.404Z,18.20
2019-05-29T10:36:04.424Z,17.80
2019-05-29T10:43:34.666Z,18.00
2019-05-29T10:48:29.220Z,18.40
2019-05-29T10:55:54.945Z,18.70
2019-05-29T10:58:23.683Z,18.40
2019-05-29T11:00:53.314Z,18.20
2019-05-29T11:03:21.935Z,18.00
2019-05-29T11:05:51.543Z,17.90
2019-05-29T11:13:18.526Z,18.40
2019-05-29T11:20:43.390Z,18.50
2019-05-29T11:25:40.075Z,18.90
2019-05-29T11:30:36.723Z,18.70
2019-05-29T11:33:05.283Z,18.70
2019-05-29T11:38:02.953Z,18.60
2019-05-29T11:40:31.789Z,18.60
2019-05-29T11:43:00.292Z,18.50
2019-05-29T11:45:28.780Z,18.70
2019-05-29T11:50:27.222Z,18.80
2019-05-29T11:52:56.417Z,18.70
2019-05-29T11:55:25.144Z,18.70
2019-05-29T12:00:22.716Z,18.60
2019-05-29T12:02:53.772Z,18.50
2019-05-29T12:05:21.626Z,18.60
2019-05-29T12:07:53.501Z,18.70
2019-05-29T12:12:51.360Z,18.90
2019-05-29T12:20:27.649Z,19.30
2019-05-29T12:23:11.161Z,19.00
2019-05-29T12:25:18.069Z,18.90
2019-05-29T12:30:16.860Z,19.00
2019-05-29T12:32:45.396Z,19.10
2019-05-29T12:37:43.547Z,19.20
2019-05-29T12:40:12.169Z,19.30
2019-05-29T12:42:44.602Z,19.50
2019-05-29T12:45:11.553Z,19.60
2019-05-29T12:47:40.011Z,19.40
2019-05-29T12:50:10.955Z,19.60
2019-05-29T12:52:39.527Z,19.50
2019-05-29T13:02:40.148Z,19.60
2019-05-29T13:12:35.852Z,19.70
2019-05-29T13:15:07.492Z,19.40
2019-05-29T13:17:35.917Z,20.40
2019-05-29T13:22:41.055Z,19.70
2019-05-29T13:27:39.715Z,19.50
2019-05-29T13:30:12.606Z,19.70
2019-05-29T13:35:10.952Z,19.80
2019-05-29T13:37:39.545Z,19.80
2019-05-29T13:40:08.631Z,19.70
2019-05-29T13:42:37.182Z,19.50
2019-05-29T13:45:16.851Z,19.60
2019-05-29T13:47:37.271Z,19.80
2019-05-29T13:52:36.019Z,20.20
2019-05-29T13:55:09.328Z,20.20
2019-05-29T13:57:40.005Z,20.20
2019-05-29T14:00:30.308Z,20.40
2019-05-29T14:02:41.020Z,20.40
2019-05-29T14:05:10.389Z,20.30
2019-05-29T14:07:38.858Z,20.30
2019-05-29T14:15:10.223Z,20.00
2019-05-29T14:17:38.752Z,19.80
2019-05-29T14:20:08.857Z,19.60
2019-05-29T14:22:37.574Z,19.60
2019-05-29T14:27:36.234Z,19.70
2019-05-29T14:32:36.209Z,20.00
2019-05-29T14:42:34.393Z,20.30
2019-05-29T14:47:32.591Z,19.90
2019-05-29T14:50:02.516Z,20.10
2019-05-29T14:52:31.195Z,20.10
2019-05-29T14:54:59.623Z,20.10
2019-05-29T14:57:28.073Z,20.20
2019-05-29T14:59:56.540Z,20.00
2019-05-29T15:02:25.099Z,20.10
2019-05-29T15:07:22.894Z,20.10
2019-05-29T15:09:51.699Z,20.10
2019-05-29T15:17:16.341Z,20.20
2019-05-29T15:22:14.239Z,20.40
2019-05-29T15:24:59.748Z,20.50
2019-05-29T15:27:14.121Z,20.50
2019-05-29T15:29:42.661Z,20.40
2019-05-29T15:32:12.334Z,20.50
2019-05-29T15:34:41.113Z,20.60
2019-05-29T15:39:39.382Z,20.60
2019-05-29T15:42:08.928Z,20.50
2019-05-29T15:44:37.670Z,20.50
2019-05-29T15:47:06.885Z,20.60
2019-05-29T15:52:03.676Z,20.70
2019-05-29T15:57:00.259Z,20.60
2019-05-29T15:59:28.751Z,20.60
2019-05-29T16:01:57.251Z,20.60
2019-05-29T16:04:25.832Z,20.70
2019-05-29T16:06:55.443Z,20.70
2019-05-29T16:09:24.441Z,20.60
2019-05-29T16:11:52.930Z,20.50
2019-05-29T16:14:21.589Z,20.50
2019-05-29T16:16:50.031Z,20.60
2019-05-29T16:19:18.474Z,20.50
2019-05-29T16:21:47.099Z,20.40
2019-05-29T16:26:43.631Z,20.20
2019-05-29T16:29:12.337Z,20.10
2019-05-29T16:36:37.354Z,20.00
2019-05-29T16:39:07.635Z,19.90
2019-05-29T16:41:36.150Z,19.90
2019-05-29T16:44:05.149Z,20.00
2019-05-29T16:46:33.623Z,20.20
2019-05-29T16:49:02.073Z,20.20
2019-05-29T16:51:30.710Z,20.20
2019-05-29T16:53:59.348Z,20.30
2019-05-29T16:58:55.939Z,20.10
2019-05-29T17:01:26.481Z,20.10
2019-05-29T17:03:54.989Z,19.90
2019-05-29T17:06:24.319Z,19.90
2019-05-29T17:08:53.560Z,19.90
2019-05-29T17:11:23.575Z,19.90
2019-05-29T17:13:52.131Z,20.00
2019-05-29T17:16:20.698Z,19.90
2019-05-29T17:18:49.795Z,19.90
2019-05-29T17:21:19.196Z,19.80
2019-05-29T17:23:47.747Z,19.80
2019-05-29T17:26:16.715Z,19.60
2019-05-29T17:28:45.244Z,19.50
2019-05-29T17:33:43.409Z,19.50
2019-05-29T17:36:11.966Z,19.50
2019-05-29T17:41:08.570Z,19.50
2019-05-29T17:46:05.557Z,19.40
2019-05-29T17:48:34.048Z,19.40
2019-05-29T17:51:02.477Z,19.40
2019-05-29T17:53:30.924Z,19.40
2019-05-29T17:55:59.356Z,19.40
2019-05-29T17:58:27.896Z,19.40
2019-05-29T18:00:56.464Z,19.20
2019-05-29T18:05:53.341Z,19.10
2019-05-29T18:08:22.844Z,19.10
2019-05-29T18:10:51.488Z,19.00
2019-05-29T18:13:21.134Z,18.90
2019-05-29T18:18:19.286Z,18.90
2019-05-29T18:25:44.360Z,18.80
2019-05-29T18:28:12.803Z,18.70
2019-05-29T18:30:41.271Z,18.60
2019-05-29T18:33:09.739Z,18.50
2019-05-29T18:35:38.175Z,18.50
2019-05-29T18:38:13.113Z,18.50
2019-05-29T18:40:41.694Z,18.40
2019-05-29T18:45:38.319Z,18.30
2019-05-29T18:48:07.003Z,18.10
2019-05-29T18:50:36.020Z,18.00
2019-05-29T18:53:04.783Z,18.00
2019-05-29T18:58:02.122Z,17.80
2019-05-29T19:00:31.532Z,17.60
2019-05-29T19:07:56.424Z,17.30
2019-05-29T19:15:23.770Z,17.00
2019-05-29T19:20:22.098Z,16.90
2019-05-29T19:22:50.671Z,16.80
2019-05-29T19:27:47.499Z,16.80
2019-05-29T19:30:16.873Z,16.80
2019-05-29T19:32:45.515Z,16.80
2019-05-29T19:35:14.172Z,16.80
2019-05-29T19:42:39.180Z,17.00
2019-05-29T19:45:09.775Z,17.10
2019-05-29T19:50:10.877Z,17.20
2019-05-29T19:52:37.930Z,17.20
2019-05-29T19:55:07.472Z,17.20
2019-05-29T19:57:52.552Z,17.20
2019-05-29T20:00:10.708Z,17.30
2019-05-29T20:02:41.227Z,17.20
2019-05-29T20:15:06.502Z,17.00
2019-05-29T20:20:04.563Z,16.80
2019-05-29T20:27:30.042Z,16.50
2019-05-29T20:29:58.531Z,16.50
2019-05-29T20:37:23.348Z,16.50
2019-05-29T20:39:51.952Z,16.50
2019-05-29T20:47:16.723Z,16.70
2019-05-29T20:49:47.561Z,16.70
2019-05-29T20:54:43.547Z,16.60
2019-05-29T20:59:42.040Z,16.40
2019-05-29T21:02:10.916Z,16.30
2019-05-29T21:12:03.902Z,16.10
2019-05-29T21:14:33.499Z,16.00
2019-05-29T21:17:02.141Z,16.00
2019-05-29T21:21:58.907Z,15.90
2019-05-29T21:26:55.455Z,15.90
2019-05-29T21:29:23.901Z,15.80
2019-05-29T21:31:52.347Z,15.70
2019-05-29T21:34:20.791Z,15.70
2019-05-29T21:39:17.412Z,15.60
2019-05-29T21:41:46.728Z,15.40
2019-05-29T21:44:15.219Z,15.40
2019-05-29T21:49:12.058Z,15.20
2019-05-29T21:51:41.503Z,15.10
2019-05-29T21:54:10.138Z,15.10
2019-05-29T21:56:39.511Z,15.00
2019-05-29T22:01:37.913Z,14.90
2019-05-29T22:04:06.861Z,14.80
2019-05-29T22:06:35.350Z,14.80
2019-05-29T22:09:05.353Z,14.80
2019-05-29T22:11:33.803Z,14.70
2019-05-29T22:14:02.442Z,14.60
2019-05-29T22:16:31.139Z,14.50
2019-05-29T22:19:03.857Z,14.50
2019-05-29T22:21:29.843Z,14.40
2019-05-29T22:23:59.215Z,14.40
2019-05-29T22:26:27.801Z,14.30
2019-05-29T22:28:57.350Z,14.20
2019-05-29T22:31:26.576Z,14.20
2019-05-29T22:33:55.420Z,14.10
2019-05-29T22:36:24.129Z,14.00
2019-05-29T22:38:53.404Z,14.00
2019-05-29T22:41:22.013Z,14.00
2019-05-29T22:43:51.485Z,14.10
2019-05-29T22:46:20.092Z,14.10
2019-05-29T22:51:16.803Z,14.10
2019-05-29T22:53:45.307Z,14.00
2019-05-29T22:56:13.763Z,14.00
2019-05-29T22:58:42.233Z,13.90
2019-05-29T23:01:10.903Z,13.80
2019-05-29T23:03:39.401Z,13.70
2019-05-29T23:06:07.837Z,13.70
2019-05-29T23:08:36.296Z,13.60
2019-05-29T23:11:05.220Z,13.60
2019-05-29T23:16:02.885Z,13.60
2019-05-29T23:21:00.623Z,13.50
2019-05-29T23:28:25.499Z,13.30
2019-05-29T23:30:54.685Z,13.20
2019-05-29T23:33:23.271Z,13.10
2019-05-29T23:35:52.910Z,13.10
2019-05-29T23:38:21.495Z,13.10
2019-05-29T23:40:49.947Z,13.10
2019-05-29T23:43:18.399Z,13.10
2019-05-29T23:45:46.819Z,13.10
2019-05-29T23:50:43.382Z,13.00
2019-05-29T23:53:11.831Z,13.00
2019-05-29T23:55:40.320Z,12.90
2019-05-29T23:58:08.897Z,12.90
